sensor_id;sensor_type;location;lat;lon;timestamp;P1;durP1;ratioP1;P2;durP2;ratioP2
77076;SDS011;66003;52.286;104.306;2023-04-15T00:01:44;0.93;;;0.75;;
77076;SDS011;66003;52.286;104.306;2023-04-15T00:04:10;3.63;;;0.88;;
77076;SDS011;66003;52.286;104.306;2023-04-15T00:06:36;1.33;;;0.43;;
77076;SDS011;66003;52.286;104.306;2023-04-15T00:09:04;2.53;;;0.68;;
77076;SDS011;66003;52.286;104.306;2023-04-15T00:11:30;1.17;;;0.32;;
77076;SDS011;66003;52.286;104.306;2023-04-15T00:13:57;1.35;;;0.65;;
77076;SDS011;66003;52.286;104.306;2023-04-15T00:16:23;3.83;;;0.60;;
77076;SDS011;66003;52.286;104.306;2023-04-15T00:18:50;1.88;;;0.55;;
77076;SDS011;66003;52.286;104.306;2023-04-15T00:21:16;0.52;;;0.43;;
77076;SDS011;66003;52.286;104.306;2023-04-15T00:23:42;2.70;;;0.95;;
77076;SDS011;66003;52.286;104.306;2023-04-15T00:26:08;1.67;;;0.68;;
77076;SDS011;66003;52.286;104.306;2023-04-15T00:28:34;1.75;;;0.63;;
77076;SDS011;66003;52.286;104.306;2023-04-15T00:31:00;0.55;;;0.55;;
77076;SDS011;66003;52.286;104.306;2023-04-15T00:33:26;0.55;;;0.50;;
77076;SDS011;66003;52.286;104.306;2023-04-15T00:35:53;2.58;;;0.95;;
77076;SDS011;66003;52.286;104.306;2023-04-15T00:38:19;3.30;;;0.90;;
77076;SDS011;66003;52.286;104.306;2023-04-15T00:40:45;1.13;;;0.57;;
77076;SDS011;66003;52.286;104.306;2023-04-15T00:43:11;2.00;;;1.02;;
77076;SDS011;66003;52.286;104.306;2023-04-15T00:45:37;1.90;;;0.75;;
77076;SDS011;66003;52.286;104.306;2023-04-15T00:48:03;1.35;;;1.15;;
77076;SDS011;66003;52.286;104.306;2023-04-15T00:50:32;0.75;;;0.65;;
77076;SDS011;66003;52.286;104.306;2023-04-15T00:52:58;0.82;;;0.63;;
77076;SDS011;66003;52.286;104.306;2023-04-15T00:57:51;0.45;;;0.30;;
77076;SDS011;66003;52.286;104.306;2023-04-15T01:00:17;1.55;;;0.65;;
77076;SDS011;66003;52.286;104.306;2023-04-15T01:02:44;1.30;;;0.57;;
77076;SDS011;66003;52.286;104.306;2023-04-15T01:07:36;1.92;;;0.85;;
77076;SDS011;66003;52.286;104.306;2023-04-15T01:12:29;2.00;;;0.30;;
77076;SDS011;66003;52.286;104.306;2023-04-15T01:14:58;1.65;;;0.93;;
77076;SDS011;66003;52.286;104.306;2023-04-15T01:17:24;3.88;;;0.80;;
77076;SDS011;66003;52.286;104.306;2023-04-15T01:19:50;0.77;;;0.50;;
77076;SDS011;66003;52.286;104.306;2023-04-15T01:22:17;1.13;;;0.73;;
77076;SDS011;66003;52.286;104.306;2023-04-15T01:24:50;2.53;;;0.52;;
77076;SDS011;66003;52.286;104.306;2023-04-15T01:27:24;3.17;;;0.57;;
77076;SDS011;66003;52.286;104.306;2023-04-15T01:29:50;2.90;;;0.47;;
77076;SDS011;66003;52.286;104.306;2023-04-15T01:32:17;4.57;;;0.68;;
77076;SDS011;66003;52.286;104.306;2023-04-15T01:35:02;3.78;;;0.70;;
77076;SDS011;66003;52.286;104.306;2023-04-15T01:37:46;5.30;;;1.55;;
77076;SDS011;66003;52.286;104.306;2023-04-15T01:40:12;3.70;;;0.55;;
77076;SDS011;66003;52.286;104.306;2023-04-15T01:42:40;2.58;;;0.32;;
77076;SDS011;66003;52.286;104.306;2023-04-15T01:45:08;1.83;;;0.50;;
77076;SDS011;66003;52.286;104.306;2023-04-15T01:47:35;3.33;;;0.40;;
77076;SDS011;66003;52.286;104.306;2023-04-15T01:50:03;2.53;;;0.50;;
77076;SDS011;66003;52.286;104.306;2023-04-15T01:52:31;0.82;;;0.22;;
77076;SDS011;66003;52.286;104.306;2023-04-15T01:54:58;3.45;;;0.35;;
77076;SDS011;66003;52.286;104.306;2023-04-15T01:57:26;2.05;;;0.50;;
77076;SDS011;66003;52.286;104.306;2023-04-15T01:59:53;1.08;;;0.30;;
77076;SDS011;66003;52.286;104.306;2023-04-15T02:02:20;3.75;;;0.40;;
77076;SDS011;66003;52.286;104.306;2023-04-15T02:04:48;2.35;;;0.52;;
77076;SDS011;66003;52.286;104.306;2023-04-15T02:07:15;2.45;;;0.38;;
77076;SDS011;66003;52.286;104.306;2023-04-15T02:09:43;2.15;;;0.73;;
77076;SDS011;66003;52.286;104.306;2023-04-15T02:12:11;5.22;;;1.27;;
77076;SDS011;66003;52.286;104.306;2023-04-15T02:14:39;3.55;;;0.43;;
77076;SDS011;66003;52.286;104.306;2023-04-15T02:17:07;2.42;;;0.80;;
77076;SDS011;66003;52.286;104.306;2023-04-15T02:19:34;2.05;;;0.88;;
77076;SDS011;66003;52.286;104.306;2023-04-15T02:22:02;2.90;;;0.57;;
77076;SDS011;66003;52.286;104.306;2023-04-15T02:24:29;2.40;;;0.63;;
77076;SDS011;66003;52.286;104.306;2023-04-15T02:26:56;6.28;;;0.57;;
77076;SDS011;66003;52.286;104.306;2023-04-15T02:29:24;2.78;;;1.13;;
77076;SDS011;66003;52.286;104.306;2023-04-15T02:31:51;4.30;;;0.73;;
77076;SDS011;66003;52.286;104.306;2023-04-15T02:34:18;1.67;;;0.35;;
77076;SDS011;66003;52.286;104.306;2023-04-15T02:36:46;4.10;;;0.73;;
77076;SDS011;66003;52.286;104.306;2023-04-15T02:39:15;4.30;;;0.85;;
77076;SDS011;66003;52.286;104.306;2023-04-15T02:41:51;4.30;;;1.30;;
77076;SDS011;66003;52.286;104.306;2023-04-15T02:44:18;1.05;;;0.95;;
77076;SDS011;66003;52.286;104.306;2023-04-15T02:46:46;3.33;;;0.77;;
77076;SDS011;66003;52.286;104.306;2023-04-15T02:49:16;2.92;;;1.48;;
77076;SDS011;66003;52.286;104.306;2023-04-15T02:51:44;2.38;;;0.55;;
77076;SDS011;66003;52.286;104.306;2023-04-15T02:54:18;2.58;;;0.50;;
77076;SDS011;66003;52.286;104.306;2023-04-15T02:56:46;1.50;;;0.65;;
77076;SDS011;66003;52.286;104.306;2023-04-15T02:59:13;4.72;;;0.63;;
77076;SDS011;66003;52.286;104.306;2023-04-15T03:01:40;6.10;;;0.98;;
77076;SDS011;66003;52.286;104.306;2023-04-15T03:04:08;2.03;;;0.82;;
77076;SDS011;66003;52.286;104.306;2023-04-15T03:06:35;1.70;;;0.55;;
77076;SDS011;66003;52.286;104.306;2023-04-15T03:09:03;1.92;;;0.43;;
77076;SDS011;66003;52.286;104.306;2023-04-15T03:11:30;1.17;;;0.77;;
77076;SDS011;66003;52.286;104.306;2023-04-15T03:13:58;1.70;;;0.70;;
77076;SDS011;66003;52.286;104.306;2023-04-15T03:16:26;3.20;;;0.80;;
77076;SDS011;66003;52.286;104.306;2023-04-15T03:18:53;3.55;;;0.85;;
77076;SDS011;66003;52.286;104.306;2023-04-15T03:21:21;1.98;;;0.77;;
77076;SDS011;66003;52.286;104.306;2023-04-15T03:23:49;1.25;;;1.08;;
77076;SDS011;66003;52.286;104.306;2023-04-15T03:26:23;3.25;;;0.65;;
77076;SDS011;66003;52.286;104.306;2023-04-15T03:28:56;2.58;;;0.55;;
77076;SDS011;66003;52.286;104.306;2023-04-15T03:31:24;2.67;;;0.50;;
77076;SDS011;66003;52.286;104.306;2023-04-15T03:33:51;0.75;;;0.50;;
77076;SDS011;66003;52.286;104.306;2023-04-15T03:36:18;3.92;;;0.68;;
77076;SDS011;66003;52.286;104.306;2023-04-15T03:38:46;1.05;;;0.52;;
77076;SDS011;66003;52.286;104.306;2023-04-15T03:41:15;1.58;;;0.57;;
77076;SDS011;66003;52.286;104.306;2023-04-15T03:43:42;3.03;;;1.00;;
77076;SDS011;66003;52.286;104.306;2023-04-15T03:46:10;3.92;;;0.82;;
77076;SDS011;66003;52.286;104.306;2023-04-15T03:48:37;2.33;;;0.63;;
77076;SDS011;66003;52.286;104.306;2023-04-15T03:51:04;1.15;;;0.50;;
77076;SDS011;66003;52.286;104.306;2023-04-15T03:53:32;1.08;;;0.70;;
77076;SDS011;66003;52.286;104.306;2023-04-15T03:55:59;4.45;;;0.90;;
77076;SDS011;66003;52.286;104.306;2023-04-15T03:58:27;4.20;;;1.05;;
77076;SDS011;66003;52.286;104.306;2023-04-15T04:00:54;7.82;;;1.05;;
77076;SDS011;66003;52.286;104.306;2023-04-15T04:03:21;3.13;;;0.52;;
77076;SDS011;66003;52.286;104.306;2023-04-15T04:05:49;0.80;;;0.73;;
77076;SDS011;66003;52.286;104.306;2023-04-15T04:08:17;4.28;;;0.63;;
77076;SDS011;66003;52.286;104.306;2023-04-15T04:10:45;1.42;;;0.80;;
77076;SDS011;66003;52.286;104.306;2023-04-15T04:13:12;1.58;;;0.57;;
77076;SDS011;66003;52.286;104.306;2023-04-15T04:15:41;2.30;;;0.80;;
77076;SDS011;66003;52.286;104.306;2023-04-15T04:18:09;4.43;;;0.57;;
77076;SDS011;66003;52.286;104.306;2023-04-15T04:20:37;1.40;;;0.57;;
77076;SDS011;66003;52.286;104.306;2023-04-15T04:23:04;0.65;;;0.22;;
77076;SDS011;66003;52.286;104.306;2023-04-15T04:25:32;1.25;;;0.55;;
77076;SDS011;66003;52.286;104.306;2023-04-15T04:27:59;1.83;;;0.55;;
77076;SDS011;66003;52.286;104.306;2023-04-15T04:30:26;2.97;;;0.57;;
77076;SDS011;66003;52.286;104.306;2023-04-15T04:32:55;3.67;;;0.95;;
77076;SDS011;66003;52.286;104.306;2023-04-15T04:35:22;2.30;;;0.45;;
77076;SDS011;66003;52.286;104.306;2023-04-15T04:37:49;2.83;;;0.65;;
77076;SDS011;66003;52.286;104.306;2023-04-15T04:40:17;3.85;;;0.73;;
77076;SDS011;66003;52.286;104.306;2023-04-15T04:42:45;1.83;;;0.43;;
77076;SDS011;66003;52.286;104.306;2023-04-15T04:45:13;2.20;;;0.52;;
77076;SDS011;66003;52.286;104.306;2023-04-15T04:47:40;1.58;;;0.70;;
77076;SDS011;66003;52.286;104.306;2023-04-15T04:50:08;2.65;;;0.50;;
77076;SDS011;66003;52.286;104.306;2023-04-15T04:52:35;3.67;;;0.40;;
77076;SDS011;66003;52.286;104.306;2023-04-15T04:55:03;0.65;;;0.35;;
77076;SDS011;66003;52.286;104.306;2023-04-15T04:57:30;1.83;;;0.50;;
77076;SDS011;66003;52.286;104.306;2023-04-15T04:59:58;1.33;;;0.35;;
77076;SDS011;66003;52.286;104.306;2023-04-15T05:02:25;8.27;;;0.75;;
77076;SDS011;66003;52.286;104.306;2023-04-15T05:04:52;4.82;;;0.57;;
77076;SDS011;66003;52.286;104.306;2023-04-15T05:07:20;2.38;;;0.40;;
77076;SDS011;66003;52.286;104.306;2023-04-15T05:09:47;3.30;;;0.70;;
77076;SDS011;66003;52.286;104.306;2023-04-15T05:12:15;1.98;;;0.70;;
77076;SDS011;66003;52.286;104.306;2023-04-15T05:14:43;4.72;;;0.88;;
77076;SDS011;66003;52.286;104.306;2023-04-15T05:17:12;2.35;;;0.65;;
77076;SDS011;66003;52.286;104.306;2023-04-15T05:19:40;2.75;;;0.55;;
77076;SDS011;66003;52.286;104.306;2023-04-15T05:22:07;3.75;;;0.50;;
77076;SDS011;66003;52.286;104.306;2023-04-15T05:24:35;1.08;;;0.30;;
77076;SDS011;66003;52.286;104.306;2023-04-15T05:27:02;2.90;;;1.08;;
77076;SDS011;66003;52.286;104.306;2023-04-15T05:29:29;0.95;;;0.50;;
77076;SDS011;66003;52.286;104.306;2023-04-15T05:31:56;2.03;;;0.43;;
77076;SDS011;66003;52.286;104.306;2023-04-15T05:34:24;1.67;;;0.70;;
77076;SDS011;66003;52.286;104.306;2023-04-15T05:36:51;2.78;;;0.93;;
77076;SDS011;66003;52.286;104.306;2023-04-15T05:39:18;1.63;;;0.75;;
77076;SDS011;66003;52.286;104.306;2023-04-15T05:41:46;2.45;;;0.98;;
77076;SDS011;66003;52.286;104.306;2023-04-15T05:44:14;3.20;;;0.50;;
77076;SDS011;66003;52.286;104.306;2023-04-15T05:46:41;0.85;;;0.60;;
77076;SDS011;66003;52.286;104.306;2023-04-15T05:49:09;2.03;;;0.40;;
77076;SDS011;66003;52.286;104.306;2023-04-15T05:51:36;2.15;;;0.50;;
77076;SDS011;66003;52.286;104.306;2023-04-15T05:54:04;1.35;;;0.57;;
77076;SDS011;66003;52.286;104.306;2023-04-15T05:56:32;2.00;;;0.52;;
77076;SDS011;66003;52.286;104.306;2023-04-15T05:58:59;0.70;;;0.15;;
77076;SDS011;66003;52.286;104.306;2023-04-15T06:01:27;4.13;;;0.73;;
77076;SDS011;66003;52.286;104.306;2023-04-15T06:03:54;1.98;;;0.68;;
77076;SDS011;66003;52.286;104.306;2023-04-15T06:06:22;2.30;;;0.63;;
77076;SDS011;66003;52.286;104.306;2023-04-15T06:08:49;0.73;;;0.68;;
77076;SDS011;66003;52.286;104.306;2023-04-15T06:11:19;1.77;;;0.73;;
77076;SDS011;66003;52.286;104.306;2023-04-15T06:13:47;2.25;;;0.17;;
77076;SDS011;66003;52.286;104.306;2023-04-15T06:16:14;2.10;;;0.80;;
77076;SDS011;66003;52.286;104.306;2023-04-15T06:18:42;5.30;;;0.93;;
77076;SDS011;66003;52.286;104.306;2023-04-15T06:21:09;1.67;;;0.20;;
77076;SDS011;66003;52.286;104.306;2023-04-15T06:23:37;6.65;;;0.75;;
77076;SDS011;66003;52.286;104.306;2023-04-15T06:26:06;1.05;;;0.45;;
77076;SDS011;66003;52.286;104.306;2023-04-15T06:28:34;3.10;;;0.52;;
77076;SDS011;66003;52.286;104.306;2023-04-15T06:31:01;3.95;;;0.93;;
77076;SDS011;66003;52.286;104.306;2023-04-15T06:33:29;4.90;;;0.65;;
77076;SDS011;66003;52.286;104.306;2023-04-15T06:35:58;2.45;;;0.80;;
77076;SDS011;66003;52.286;104.306;2023-04-15T06:38:26;2.33;;;0.35;;
77076;SDS011;66003;52.286;104.306;2023-04-15T06:40:53;2.03;;;0.43;;
77076;SDS011;66003;52.286;104.306;2023-04-15T06:43:20;2.50;;;0.70;;
77076;SDS011;66003;52.286;104.306;2023-04-15T06:45:47;2.30;;;0.40;;
77076;SDS011;66003;52.286;104.306;2023-04-15T06:48:15;4.65;;;0.60;;
77076;SDS011;66003;52.286;104.306;2023-04-15T06:50:43;2.60;;;0.65;;
77076;SDS011;66003;52.286;104.306;2023-04-15T06:53:10;2.35;;;0.57;;
77076;SDS011;66003;52.286;104.306;2023-04-15T06:55:37;5.85;;;1.23;;
77076;SDS011;66003;52.286;104.306;2023-04-15T06:58:05;11.38;;;3.78;;
77076;SDS011;66003;52.286;104.306;2023-04-15T07:00:33;9.77;;;3.03;;
77076;SDS011;66003;52.286;104.306;2023-04-15T07:03:01;22.95;;;4.35;;
77076;SDS011;66003;52.286;104.306;2023-04-15T07:05:29;16.20;;;3.72;;
77076;SDS011;66003;52.286;104.306;2023-04-15T07:07:58;15.30;;;3.55;;
77076;SDS011;66003;52.286;104.306;2023-04-15T07:10:25;11.82;;;1.73;;
77076;SDS011;66003;52.286;104.306;2023-04-15T07:12:53;12.20;;;3.00;;
77076;SDS011;66003;52.286;104.306;2023-04-15T07:15:20;10.32;;;2.95;;
77076;SDS011;66003;52.286;104.306;2023-04-15T07:17:48;7.85;;;2.38;;
77076;SDS011;66003;52.286;104.306;2023-04-15T07:20:15;11.27;;;2.08;;
77076;SDS011;66003;52.286;104.306;2023-04-15T07:22:42;6.25;;;1.75;;
77076;SDS011;66003;52.286;104.306;2023-04-15T07:25:10;12.10;;;3.17;;
77076;SDS011;66003;52.286;104.306;2023-04-15T07:27:38;14.80;;;3.42;;
77076;SDS011;66003;52.286;104.306;2023-04-15T07:30:05;11.10;;;2.35;;
77076;SDS011;66003;52.286;104.306;2023-04-15T07:32:33;8.70;;;1.85;;
77076;SDS011;66003;52.286;104.306;2023-04-15T07:35:00;19.40;;;3.13;;
77076;SDS011;66003;52.286;104.306;2023-04-15T07:37:29;15.07;;;2.13;;
77076;SDS011;66003;52.286;104.306;2023-04-15T07:39:56;6.15;;;1.83;;
77076;SDS011;66003;52.286;104.306;2023-04-15T07:42:23;7.72;;;2.17;;
77076;SDS011;66003;52.286;104.306;2023-04-15T07:44:51;7.82;;;1.52;;
77076;SDS011;66003;52.286;104.306;2023-04-15T07:47:18;4.32;;;1.70;;
77076;SDS011;66003;52.286;104.306;2023-04-15T07:49:45;8.10;;;1.42;;
77076;SDS011;66003;52.286;104.306;2023-04-15T07:52:13;8.73;;;1.48;;
77076;SDS011;66003;52.286;104.306;2023-04-15T07:54:40;4.88;;;1.35;;
77076;SDS011;66003;52.286;104.306;2023-04-15T07:57:07;5.15;;;1.45;;
77076;SDS011;66003;52.286;104.306;2023-04-15T07:59:35;4.18;;;1.20;;
77076;SDS011;66003;52.286;104.306;2023-04-15T08:02:02;4.40;;;1.35;;
77076;SDS011;66003;52.286;104.306;2023-04-15T08:04:30;3.47;;;1.48;;
77076;SDS011;66003;52.286;104.306;2023-04-15T08:06:57;1.88;;;1.23;;
77076;SDS011;66003;52.286;104.306;2023-04-15T08:09:25;11.00;;;2.17;;
77076;SDS011;66003;52.286;104.306;2023-04-15T08:11:52;2.58;;;0.95;;
77076;SDS011;66003;52.286;104.306;2023-04-15T08:14:20;1.77;;;1.00;;
77076;SDS011;66003;52.286;104.306;2023-04-15T08:16:47;7.97;;;2.72;;
77076;SDS011;66003;52.286;104.306;2023-04-15T08:19:15;5.05;;;1.95;;
77076;SDS011;66003;52.286;104.306;2023-04-15T08:21:42;8.63;;;1.50;;
77076;SDS011;66003;52.286;104.306;2023-04-15T08:24:10;4.78;;;1.88;;
77076;SDS011;66003;52.286;104.306;2023-04-15T08:26:38;5.68;;;2.15;;
77076;SDS011;66003;52.286;104.306;2023-04-15T08:29:05;4.93;;;1.42;;
77076;SDS011;66003;52.286;104.306;2023-04-15T08:31:33;6.70;;;1.30;;
77076;SDS011;66003;52.286;104.306;2023-04-15T08:34:00;3.78;;;1.15;;
77076;SDS011;66003;52.286;104.306;2023-04-15T08:36:28;5.60;;;1.30;;
77076;SDS011;66003;52.286;104.306;2023-04-15T08:38:55;9.80;;;1.63;;
77076;SDS011;66003;52.286;104.306;2023-04-15T08:41:23;4.80;;;1.27;;
77076;SDS011;66003;52.286;104.306;2023-04-15T08:43:52;6.70;;;1.27;;
77076;SDS011;66003;52.286;104.306;2023-04-15T08:46:23;3.75;;;1.77;;
77076;SDS011;66003;52.286;104.306;2023-04-15T08:48:51;4.78;;;0.77;;
77076;SDS011;66003;52.286;104.306;2023-04-15T08:51:22;4.28;;;0.68;;
77076;SDS011;66003;52.286;104.306;2023-04-15T08:53:50;4.35;;;1.38;;
77076;SDS011;66003;52.286;104.306;2023-04-15T08:56:18;5.72;;;1.15;;
77076;SDS011;66003;52.286;104.306;2023-04-15T08:58:52;2.70;;;1.08;;
77076;SDS011;66003;52.286;104.306;2023-04-15T09:01:20;2.90;;;1.25;;
77076;SDS011;66003;52.286;104.306;2023-04-15T09:03:48;5.20;;;1.17;;
77076;SDS011;66003;52.286;104.306;2023-04-15T09:06:20;4.88;;;1.40;;
77076;SDS011;66003;52.286;104.306;2023-04-15T09:08:48;5.57;;;1.58;;
77076;SDS011;66003;52.286;104.306;2023-04-15T09:11:17;5.20;;;1.80;;
77076;SDS011;66003;52.286;104.306;2023-04-15T09:13:45;5.70;;;1.33;;
77076;SDS011;66003;52.286;104.306;2023-04-15T09:16:13;5.28;;;1.60;;
77076;SDS011;66003;52.286;104.306;2023-04-15T09:18:41;6.10;;;0.85;;
77076;SDS011;66003;52.286;104.306;2023-04-15T09:21:12;2.20;;;1.20;;
77076;SDS011;66003;52.286;104.306;2023-04-15T09:23:53;5.25;;;1.38;;
77076;SDS011;66003;52.286;104.306;2023-04-15T09:26:37;3.08;;;1.13;;
77076;SDS011;66003;52.286;104.306;2023-04-15T09:29:09;5.22;;;1.13;;
77076;SDS011;66003;52.286;104.306;2023-04-15T09:31:40;5.15;;;2.33;;
77076;SDS011;66003;52.286;104.306;2023-04-15T09:34:08;9.88;;;2.40;;
77076;SDS011;66003;52.286;104.306;2023-04-15T09:39:12;5.38;;;2.90;;
77076;SDS011;66003;52.286;104.306;2023-04-15T09:41:39;5.38;;;3.00;;
77076;SDS011;66003;52.286;104.306;2023-04-15T09:44:07;10.40;;;3.60;;
77076;SDS011;66003;52.286;104.306;2023-04-15T09:46:52;5.70;;;2.75;;
77076;SDS011;66003;52.286;104.306;2023-04-15T09:49:19;2.88;;;1.70;;
77076;SDS011;66003;52.286;104.306;2023-04-15T09:51:47;5.93;;;2.40;;
77076;SDS011;66003;52.286;104.306;2023-04-15T09:54:18;6.30;;;2.55;;
77076;SDS011;66003;52.286;104.306;2023-04-15T09:56:48;4.47;;;1.98;;
77076;SDS011;66003;52.286;104.306;2023-04-15T09:59:15;1.95;;;0.93;;
77076;SDS011;66003;52.286;104.306;2023-04-15T10:01:43;4.35;;;1.95;;
77076;SDS011;66003;52.286;104.306;2023-04-15T10:04:11;4.30;;;1.40;;
77076;SDS011;66003;52.286;104.306;2023-04-15T10:06:38;2.28;;;1.77;;
77076;SDS011;66003;52.286;104.306;2023-04-15T10:09:06;3.45;;;2.05;;
77076;SDS011;66003;52.286;104.306;2023-04-15T10:11:34;7.22;;;2.10;;
77076;SDS011;66003;52.286;104.306;2023-04-15T10:14:02;9.43;;;2.92;;
77076;SDS011;66003;52.286;104.306;2023-04-15T10:16:29;4.78;;;1.73;;
77076;SDS011;66003;52.286;104.306;2023-04-15T10:19:00;6.15;;;2.00;;
77076;SDS011;66003;52.286;104.306;2023-04-15T10:21:30;2.20;;;1.00;;
77076;SDS011;66003;52.286;104.306;2023-04-15T10:23:57;2.75;;;1.05;;
77076;SDS011;66003;52.286;104.306;2023-04-15T10:26:27;4.95;;;1.85;;
77076;SDS011;66003;52.286;104.306;2023-04-15T10:28:55;8.70;;;1.52;;
77076;SDS011;66003;52.286;104.306;2023-04-15T10:31:23;3.08;;;1.35;;
77076;SDS011;66003;52.286;104.306;2023-04-15T10:33:51;4.55;;;2.05;;
77076;SDS011;66003;52.286;104.306;2023-04-15T10:36:26;8.45;;;2.03;;
77076;SDS011;66003;52.286;104.306;2023-04-15T10:38:54;12.65;;;2.58;;
77076;SDS011;66003;52.286;104.306;2023-04-15T10:46:37;4.13;;;1.48;;
77076;SDS011;66003;52.286;104.306;2023-04-15T10:49:06;3.17;;;1.35;;
77076;SDS011;66003;52.286;104.306;2023-04-15T10:51:37;1.38;;;0.65;;
77076;SDS011;66003;52.286;104.306;2023-04-15T10:54:12;3.10;;;1.10;;
77076;SDS011;66003;52.286;104.306;2023-04-15T10:56:44;3.45;;;1.58;;
77076;SDS011;66003;52.286;104.306;2023-04-15T10:59:11;2.13;;;0.85;;
77076;SDS011;66003;52.286;104.306;2023-04-15T11:12:44;10.32;;;2.20;;
77076;SDS011;66003;52.286;104.306;2023-04-15T11:20:40;12.50;;;3.42;;
77076;SDS011;66003;52.286;104.306;2023-04-15T11:23:10;8.38;;;2.47;;
77076;SDS011;66003;52.286;104.306;2023-04-15T11:25:38;6.70;;;1.85;;
77076;SDS011;66003;52.286;104.306;2023-04-15T11:28:06;4.60;;;1.25;;
77076;SDS011;66003;52.286;104.306;2023-04-15T11:30:34;7.68;;;1.58;;
77076;SDS011;66003;52.286;104.306;2023-04-15T11:33:07;2.15;;;1.15;;
77076;SDS011;66003;52.286;104.306;2023-04-15T11:35:37;3.47;;;1.33;;
77076;SDS011;66003;52.286;104.306;2023-04-15T11:38:07;2.10;;;0.47;;
77076;SDS011;66003;52.286;104.306;2023-04-15T11:40:38;2.80;;;1.20;;
77076;SDS011;66003;52.286;104.306;2023-04-15T11:43:10;12.45;;;3.97;;
77076;SDS011;66003;52.286;104.306;2023-04-15T11:45:55;5.07;;;3.15;;
77076;SDS011;66003;52.286;104.306;2023-04-15T11:48:27;7.70;;;1.90;;
77076;SDS011;66003;52.286;104.306;2023-04-15T11:51:03;2.85;;;1.08;;
77076;SDS011;66003;52.286;104.306;2023-04-15T11:56:16;1.55;;;0.95;;
77076;SDS011;66003;52.286;104.306;2023-04-15T11:58:46;2.67;;;0.55;;
77076;SDS011;66003;52.286;104.306;2023-04-15T12:01:15;1.77;;;0.13;;
77076;SDS011;66003;52.286;104.306;2023-04-15T12:03:42;2.92;;;1.17;;
77076;SDS011;66003;52.286;104.306;2023-04-15T12:06:17;2.47;;;0.63;;
77076;SDS011;66003;52.286;104.306;2023-04-15T12:08:51;2.38;;;1.45;;
77076;SDS011;66003;52.286;104.306;2023-04-15T12:13:48;1.58;;;1.08;;
77076;SDS011;66003;52.286;104.306;2023-04-15T12:16:16;2.70;;;2.15;;
77076;SDS011;66003;52.286;104.306;2023-04-15T12:18:44;2.35;;;1.17;;
77076;SDS011;66003;52.286;104.306;2023-04-15T12:21:20;0.75;;;0.75;;
77076;SDS011;66003;52.286;104.306;2023-04-15T12:23:52;1.92;;;1.50;;
77076;SDS011;66003;52.286;104.306;2023-04-15T12:26:27;1.95;;;1.23;;
77076;SDS011;66003;52.286;104.306;2023-04-15T12:29:02;3.08;;;1.58;;
77076;SDS011;66003;52.286;104.306;2023-04-15T12:31:30;5.45;;;2.13;;
77076;SDS011;66003;52.286;104.306;2023-04-15T12:33:57;1.00;;;0.70;;
77076;SDS011;66003;52.286;104.306;2023-04-15T12:36:25;4.32;;;1.20;;
77076;SDS011;66003;52.286;104.306;2023-04-15T12:38:52;3.58;;;1.77;;
77076;SDS011;66003;52.286;104.306;2023-04-15T12:41:19;8.40;;;2.25;;
77076;SDS011;66003;52.286;104.306;2023-04-15T12:43:48;2.45;;;1.60;;
77076;SDS011;66003;52.286;104.306;2023-04-15T12:46:15;2.40;;;0.73;;
77076;SDS011;66003;52.286;104.306;2023-04-15T12:48:41;4.07;;;2.05;;
77076;SDS011;66003;52.286;104.306;2023-04-15T12:51:08;4.43;;;2.50;;
77076;SDS011;66003;52.286;104.306;2023-04-15T12:53:34;4.70;;;1.83;;
77076;SDS011;66003;52.286;104.306;2023-04-15T12:56:00;1.27;;;0.55;;
77076;SDS011;66003;52.286;104.306;2023-04-15T12:58:26;8.02;;;2.38;;
77076;SDS011;66003;52.286;104.306;2023-04-15T13:00:52;1.73;;;1.25;;
77076;SDS011;66003;52.286;104.306;2023-04-15T13:03:19;6.85;;;2.05;;
77076;SDS011;66003;52.286;104.306;2023-04-15T13:05:45;7.55;;;1.50;;
77076;SDS011;66003;52.286;104.306;2023-04-15T13:08:11;5.10;;;1.52;;
77076;SDS011;66003;52.286;104.306;2023-04-15T13:10:37;2.13;;;1.10;;
77076;SDS011;66003;52.286;104.306;2023-04-15T13:13:04;1.40;;;1.30;;
77076;SDS011;66003;52.286;104.306;2023-04-15T13:15:30;1.60;;;0.68;;
77076;SDS011;66003;52.286;104.306;2023-04-15T13:17:56;2.08;;;1.65;;
77076;SDS011;66003;52.286;104.306;2023-04-15T13:20:23;3.38;;;0.77;;
77076;SDS011;66003;52.286;104.306;2023-04-15T13:22:51;1.45;;;0.70;;
77076;SDS011;66003;52.286;104.306;2023-04-15T13:25:18;1.67;;;0.70;;
77076;SDS011;66003;52.286;104.306;2023-04-15T13:27:45;2.28;;;1.10;;
77076;SDS011;66003;52.286;104.306;2023-04-15T13:30:12;3.25;;;1.65;;
77076;SDS011;66003;52.286;104.306;2023-04-15T13:32:38;4.82;;;1.65;;
77076;SDS011;66003;52.286;104.306;2023-04-15T13:35:05;8.32;;;2.08;;
77076;SDS011;66003;52.286;104.306;2023-04-15T13:37:31;5.22;;;2.42;;
77076;SDS011;66003;52.286;104.306;2023-04-15T13:39:57;8.18;;;2.00;;
77076;SDS011;66003;52.286;104.306;2023-04-15T13:42:23;3.17;;;1.35;;
77076;SDS011;66003;52.286;104.306;2023-04-15T13:44:50;2.85;;;0.88;;
77076;SDS011;66003;52.286;104.306;2023-04-15T13:47:16;4.88;;;1.30;;
77076;SDS011;66003;52.286;104.306;2023-04-15T13:49:44;2.33;;;0.93;;
77076;SDS011;66003;52.286;104.306;2023-04-15T13:52:11;1.30;;;0.75;;
77076;SDS011;66003;52.286;104.306;2023-04-15T13:54:37;2.88;;;1.27;;
77076;SDS011;66003;52.286;104.306;2023-04-15T13:57:04;3.75;;;1.58;;
77076;SDS011;66003;52.286;104.306;2023-04-15T13:59:31;1.35;;;1.10;;
77076;SDS011;66003;52.286;104.306;2023-04-15T14:01:59;2.17;;;0.90;;
77076;SDS011;66003;52.286;104.306;2023-04-15T14:04:25;1.17;;;1.05;;
77076;SDS011;66003;52.286;104.306;2023-04-15T14:06:52;3.47;;;0.80;;
77076;SDS011;66003;52.286;104.306;2023-04-15T14:09:18;4.53;;;1.15;;
77076;SDS011;66003;52.286;104.306;2023-04-15T14:11:46;2.55;;;0.70;;
77076;SDS011;66003;52.286;104.306;2023-04-15T14:14:12;2.50;;;1.33;;
77076;SDS011;66003;52.286;104.306;2023-04-15T14:16:38;1.58;;;1.17;;
77076;SDS011;66003;52.286;104.306;2023-04-15T14:19:05;2.17;;;1.25;;
77076;SDS011;66003;52.286;104.306;2023-04-15T14:21:31;1.90;;;1.40;;
77076;SDS011;66003;52.286;104.306;2023-04-15T14:23:58;1.55;;;0.85;;
77076;SDS011;66003;52.286;104.306;2023-04-15T14:26:24;3.15;;;0.68;;
77076;SDS011;66003;52.286;104.306;2023-04-15T14:28:50;3.10;;;0.90;;
77076;SDS011;66003;52.286;104.306;2023-04-15T14:31:17;1.88;;;0.47;;
77076;SDS011;66003;52.286;104.306;2023-04-15T14:36:10;1.73;;;0.88;;
77076;SDS011;66003;52.286;104.306;2023-04-15T14:38:36;1.25;;;0.57;;
77076;SDS011;66003;52.286;104.306;2023-04-15T14:41:05;0.52;;;0.50;;
77076;SDS011;66003;52.286;104.306;2023-04-15T14:43:32;2.80;;;0.63;;
77076;SDS011;66003;52.286;104.306;2023-04-15T14:45:59;1.20;;;0.70;;
77076;SDS011;66003;52.286;104.306;2023-04-15T14:48:25;1.38;;;0.80;;
77076;SDS011;66003;52.286;104.306;2023-04-15T14:50:52;2.90;;;0.68;;
77076;SDS011;66003;52.286;104.306;2023-04-15T14:53:18;0.90;;;0.90;;
77076;SDS011;66003;52.286;104.306;2023-04-15T14:55:45;0.57;;;0.30;;
77076;SDS011;66003;52.286;104.306;2023-04-15T14:58:11;0.45;;;0.28;;
77076;SDS011;66003;52.286;104.306;2023-04-15T15:00:38;2.47;;;0.85;;
77076;SDS011;66003;52.286;104.306;2023-04-15T15:03:10;0.60;;;0.60;;
77076;SDS011;66003;52.286;104.306;2023-04-15T15:05:40;0.60;;;0.60;;